Time;durP1;ratioP1;P1;durP2;ratioP2;P2;SDS_P1;SDS_P2;PMS_P1;PMS_P2;Temp;Humidity;BMP_temperature;BMP_pressure;BME280_temperature;BME280_humidity;BME280_pressure;Samples;Min_cycle;Max_cycle;Signal;HPM_P1;HPM_P2
2021/05/05 00:00:07;;;;;;;1.02;0.60;;;8.70;93.00;;;;;;6127877;23;20231;-74
2021/05/05 00:02:33;;;;;;;0.73;0.73;;;8.70;93.00;;;;;;6125125;23;20236;-73
2021/05/05 00:05:00;;;;;;;0.90;0.80;;;8.70;93.60;;;;;;6126745;23;20225;-75
2021/05/05 00:07:27;;;;;;;1.00;0.55;;;8.70;93.60;;;;;;6135562;23;20681;-74
2021/05/05 00:09:53;;;;;;;2.80;0.73;;;8.70;93.90;;;;;;6137533;23;20184;-75
2021/05/05 00:12:20;;;;;;;0.70;0.65;;;8.70;94.30;;;;;;6126836;23;20267;-75
2021/05/05 00:14:47;;;;;;;0.90;0.90;;;8.70;94.80;;;;;;6126180;23;20239;-75
2021/05/05 00:17:13;;;;;;;1.25;0.80;;;8.60;94.70;;;;;;6124915;23;20300;-74
2021/05/05 00:19:40;;;;;;;1.20;0.73;;;8.60;94.80;;;;;;6125383;23;20507;-76
2021/05/05 00:22:07;;;;;;;2.78;1.00;;;8.60;94.50;;;;;;6125180;23;20239;-74
2021/05/05 00:24:35;;;;;;;1.60;1.17;;;8.60;94.30;;;;;;6124735;23;20181;-74
2021/05/05 00:27:01;;;;;;;1.90;0.80;;;8.60;94.20;;;;;;6124321;23;20259;-74
2021/05/05 00:29:28;;;;;;;1.20;1.10;;;8.60;94.70;;;;;;6124971;23;20211;-76
2021/05/05 00:31:54;;;;;;;1.90;0.95;;;8.60;94.80;;;;;;6125068;23;20212;-75
2021/05/05 00:34:20;;;;;;;3.60;1.10;;;8.60;94.80;;;;;;6125897;23;20180;-77
2021/05/05 00:36:47;;;;;;;2.13;0.98;;;8.60;95.00;;;;;;6125242;23;20259;-77
2021/05/05 00:39:13;;;;;;;1.50;0.77;;;8.60;95.10;;;;;;6125218;23;20181;-75
2021/05/05 00:41:41;;;;;;;1.95;1.10;;;8.50;95.20;;;;;;6125856;23;20228;-76
2021/05/05 00:44:07;;;;;;;3.13;1.27;;;8.50;95.50;;;;;;6126438;23;20208;-77
2021/05/05 00:46:34;;;;;;;2.13;1.08;;;8.50;95.90;;;;;;6125049;23;20212;-76
2021/05/05 00:49:00;;;;;;;1.55;1.00;;;8.40;96.40;;;;;;6125433;23;20185;-76
2021/05/05 00:51:26;;;;;;;2.63;1.35;;;8.40;96.50;;;;;;6124752;23;20200;-77
2021/05/05 00:53:53;;;;;;;2.70;1.48;;;8.40;96.60;;;;;;6125185;23;20185;-76
2021/05/05 00:56:19;;;;;;;1.40;1.05;;;8.40;96.90;;;;;;6123502;23;20227;-77
2021/05/05 00:58:47;;;;;;;3.60;1.20;;;8.40;97.00;;;;;;6124814;23;20556;-76
2021/05/05 01:01:13;;;;;;;2.55;1.30;;;8.40;97.10;;;;;;6124622;23;20236;-74
2021/05/05 01:03:39;;;;;;;1.90;1.20;;;8.40;96.90;;;;;;6123818;23;20263;-75
2021/05/05 01:06:06;;;;;;;2.05;1.20;;;8.30;96.90;;;;;;6123636;23;20216;-75
2021/05/05 01:08:33;;;;;;;7.93;1.63;;;8.30;96.80;;;;;;6124120;23;20582;-75
2021/05/05 01:11:00;;;;;;;1.30;1.20;;;8.30;97.10;;;;;;6124991;23;20228;-75
2021/05/05 01:13:27;;;;;;;2.83;1.33;;;8.20;97.00;;;;;;6124911;23;20259;-75
2021/05/05 01:15:55;;;;;;;2.35;1.33;;;8.20;96.70;;;;;;6124357;23;20184;-75
2021/05/05 01:18:22;;;;;;;2.78;1.42;;;8.20;96.80;;;;;;6124866;23;20271;-76
2021/05/05 01:20:48;;;;;;;2.75;1.50;;;8.20;96.90;;;;;;6126076;23;20287;-76
2021/05/05 01:23:16;;;;;;;2.83;1.20;;;8.20;96.80;;;;;;6125981;23;20658;-76
2021/05/05 01:25:42;;;;;;;2.38;1.50;;;8.10;96.60;;;;;;6130653;23;20253;-75
2021/05/05 01:28:08;;;;;;;3.28;1.40;;;8.10;96.80;;;;;;6135492;23;20180;-76
2021/05/05 01:30:35;;;;;;;3.00;0.88;;;8.10;97.20;;;;;;6124027;23;20756;-76
2021/05/05 01:33:01;;;;;;;4.38;1.40;;;8.10;97.60;;;;;;6124273;23;20621;-76
2021/05/05 01:35:28;;;;;;;2.03;1.20;;;8.10;97.40;;;;;;6124186;23;20263;-74
2021/05/05 01:37:54;;;;;;;3.80;1.67;;;8.10;97.30;;;;;;6123607;23;20239;-75
2021/05/05 01:40:25;;;;;;;7.45;1.88;;;8.10;97.80;;;;;;6124168;23;20235;-76
2021/05/05 01:42:52;;;;;;;1.73;1.20;;;8.10;98.10;;;;;;6124405;23;20172;-76
2021/05/05 01:45:18;;;;;;;6.05;1.35;;;8.10;97.90;;;;;;6124558;23;20215;-76
2021/05/05 01:47:45;;;;;;;2.92;1.10;;;8.10;97.60;;;;;;6123650;23;20506;-75
2021/05/05 01:50:12;;;;;;;4.95;1.60;;;8.10;97.60;;;;;;6124827;23;20188;-77
2021/05/05 01:52:39;;;;;;;3.13;1.40;;;8.10;97.50;;;;;;6124600;23;20204;-76
2021/05/05 01:55:14;;;;;;;2.50;1.60;;;8.10;97.80;;;;;;6125018;23;20211;-76
2021/05/05 01:57:43;;;;;;;3.17;1.70;;;8.10;98.00;;;;;;6124058;23;20188;-76
2021/05/05 02:00:15;;;;;;;4.22;1.88;;;8.10;98.10;;;;;;6128019;23;20200;-76
2021/05/05 02:02:41;;;;;;;2.63;1.38;;;8.00;98.10;;;;;;6123720;23;20212;-77
2021/05/05 02:05:09;;;;;;;6.65;1.65;;;8.10;98.40;;;;;;6125271;23;20188;-76
2021/05/05 02:07:36;;;;;;;2.55;1.40;;;8.10;98.20;;;;;;6124087;23;20215;-77
2021/05/05 02:10:04;;;;;;;3.22;1.55;;;8.00;98.60;;;;;;6124541;23;20497;-76
2021/05/05 02:12:31;;;;;;;1.45;1.25;;;8.00;98.60;;;;;;6124338;23;20200;-75
2021/05/05 02:14:58;;;;;;;3.83;1.40;;;7.90;99.10;;;;;;6126203;23;20215;-75
2021/05/05 02:17:25;;;;;;;3.95;1.33;;;7.90;99.40;;;;;;6133952;23;20233;-75
2021/05/05 02:19:51;;;;;;;2.92;1.20;;;7.90;99.60;;;;;;6132903;23;20724;-75
2021/05/05 02:22:18;;;;;;;2.50;1.48;;;7.90;99.30;;;;;;6128210;23;20205;-75
2021/05/05 02:24:44;;;;;;;3.45;1.50;;;7.80;99.50;;;;;;6131878;23;20315;-74
2021/05/05 02:27:10;;;;;;;2.38;1.27;;;7.90;99.80;;;;;;6129741;23;20662;-75
2021/05/05 02:29:37;;;;;;;1.48;1.35;;;7.90;99.80;;;;;;6125932;23;20191;-74
2021/05/05 02:32:08;;;;;;;4.22;2.28;;;7.90;99.80;;;;;;6123772;23;20283;-74
2021/05/05 02:34:35;;;;;;;3.80;1.25;;;7.90;99.90;;;;;;6124225;23;20200;-75
2021/05/05 02:37:02;;;;;;;3.17;1.40;;;7.90;99.90;;;;;;6124010;23;20216;-75
2021/05/05 02:39:28;;;;;;;2.70;1.52;;;7.80;99.90;;;;;;6124310;23;20264;-75
2021/05/05 02:41:55;;;;;;;2.35;1.73;;;7.80;99.90;;;;;;6124288;23;20694;-75
2021/05/05 02:44:21;;;;;;;5.10;1.75;;;7.80;99.90;;;;;;6127625;23;20188;-75
2021/05/05 02:46:47;;;;;;;6.55;1.98;;;7.80;99.90;;;;;;6130258;23;20211;-74
2021/05/05 02:49:15;;;;;;;3.47;1.67;;;7.80;99.90;;;;;;6132197;23;20214;-73
2021/05/05 02:51:41;;;;;;;3.20;1.42;;;7.80;99.90;;;;;;6138530;23;20200;-74
2021/05/05 02:54:08;;;;;;;1.52;1.42;;;7.90;99.90;;;;;;6130528;23;20185;-75
2021/05/05 02:56:34;;;;;;;1.30;1.20;;;7.80;99.90;;;;;;6127112;23;20188;-75
2021/05/05 02:59:00;;;;;;;3.47;1.30;;;7.80;99.90;;;;;;6127615;23;20184;-74
2021/05/05 03:01:27;;;;;;;3.35;1.52;;;7.80;99.90;;;;;;6136570;23;20509;-74
2021/05/05 03:03:53;;;;;;;3.45;1.00;;;7.80;99.90;;;;;;6137083;23;20192;-75
2021/05/05 03:06:20;;;;;;;1.90;1.65;;;7.90;99.90;;;;;;6126578;23;20212;-75
2021/05/05 03:08:47;;;;;;;3.35;1.58;;;7.90;99.90;;;;;;6127424;23;20312;-74
2021/05/05 03:11:14;;;;;;;2.72;1.45;;;7.80;99.90;;;;;;6145652;23;20546;-73
2021/05/05 03:13:40;;;;;;;4.18;1.50;;;7.90;99.90;;;;;;6142891;23;20208;-73
2021/05/05 03:16:07;;;;;;;2.03;1.25;;;7.90;99.90;;;;;;6136475;23;20216;-74
2021/05/05 03:18:33;;;;;;;3.50;1.30;;;7.90;99.90;;;;;;6147434;23;20184;-74
2021/05/05 03:21:00;;;;;;;1.70;1.20;;;7.80;99.90;;;;;;6135900;23;20240;-74
2021/05/05 03:23:28;;;;;;;3.10;1.27;;;7.80;99.90;;;;;;6127328;23;20192;-74
2021/05/05 03:25:55;;;;;;;4.10;1.48;;;7.80;99.90;;;;;;6125744;23;20631;-74
2021/05/05 03:28:21;;;;;;;2.15;1.55;;;7.80;99.90;;;;;;6124727;23;20185;-74
2021/05/05 03:30:47;;;;;;;4.18;1.60;;;7.90;99.90;;;;;;6125718;23;20296;-74
2021/05/05 03:33:14;;;;;;;3.55;2.20;;;7.80;99.90;;;;;;6125920;23;20247;-74
2021/05/05 03:35:40;;;;;;;3.22;1.20;;;7.80;99.90;;;;;;6125545;23;20259;-74
2021/05/05 03:38:07;;;;;;;3.63;1.38;;;7.90;99.90;;;;;;6124812;23;20280;-73
2021/05/05 03:40:35;;;;;;;6.57;1.95;;;7.80;99.90;;;;;;6124690;23;20275;-74
2021/05/05 03:43:01;;;;;;;3.17;1.70;;;7.90;99.90;;;;;;6125779;23;20187;-73
2021/05/05 03:45:27;;;;;;;4.15;1.92;;;7.80;99.90;;;;;;6125059;23;20315;-73
2021/05/05 03:47:54;;;;;;;2.60;1.40;;;7.80;99.90;;;;;;6125471;23;20184;-73
2021/05/05 03:50:22;;;;;;;1.60;1.50;;;7.90;99.90;;;;;;6125392;23;20252;-75
2021/05/05 03:52:49;;;;;;;3.28;1.60;;;7.90;99.90;;;;;;6125217;23;20189;-74
2021/05/05 03:55:15;;;;;;;2.85;1.92;;;7.90;99.90;;;;;;6124788;23;20219;-75
2021/05/05 03:57:43;;;;;;;2.58;1.45;;;7.80;99.90;;;;;;6124385;23;20252;-74
2021/05/05 04:00:13;;;;;;;2.17;1.70;;;7.80;99.90;;;;;;6125278;23;20279;-74
2021/05/05 04:02:39;;;;;;;2.45;1.77;;;7.70;99.90;;;;;;6123407;23;20737;-74
2021/05/05 04:05:07;;;;;;;4.47;1.90;;;7.70;99.90;;;;;;6124953;23;20260;-75
2021/05/05 04:07:33;;;;;;;1.88;1.77;;;7.70;99.90;;;;;;6125075;23;20191;-75
2021/05/05 04:10:00;;;;;;;3.40;1.88;;;7.70;99.90;;;;;;6125805;23;20181;-75
2021/05/05 04:12:28;;;;;;;2.78;1.90;;;7.70;99.90;;;;;;6125566;23;20284;-75
2021/05/05 04:14:56;;;;;;;1.92;1.58;;;7.70;99.90;;;;;;6125602;23;20180;-74
2021/05/05 04:17:23;;;;;;;3.75;2.03;;;7.80;99.90;;;;;;6125942;23;20515;-74
2021/05/05 04:19:49;;;;;;;3.75;1.60;;;7.70;99.90;;;;;;6127596;23;20264;-75
2021/05/05 04:22:16;;;;;;;2.13;1.40;;;7.70;99.90;;;;;;6126507;23;20243;-74
2021/05/05 04:24:42;;;;;;;2.40;1.80;;;7.70;99.90;;;;;;6125783;23;20216;-74
2021/05/05 04:27:09;;;;;;;1.88;1.60;;;7.70;99.90;;;;;;6124244;23;20216;-74
2021/05/05 04:29:35;;;;;;;1.80;1.70;;;7.70;99.90;;;;;;6126405;23;20224;-74
2021/05/05 04:32:03;;;;;;;3.15;1.80;;;7.80;99.90;;;;;;6125435;23;20238;-74
2021/05/05 04:34:29;;;;;;;3.40;1.83;;;7.70;99.90;;;;;;6124018;23;20185;-75
2021/05/05 04:36:55;;;;;;;3.78;2.40;;;7.70;99.90;;;;;;6133192;23;20211;-74
2021/05/05 04:39:22;;;;;;;2.85;1.63;;;7.80;99.90;;;;;;6131487;23;20184;-74
2021/05/05 04:41:48;;;;;;;2.78;1.80;;;7.80;99.90;;;;;;6135497;23;20550;-74
2021/05/05 04:44:15;;;;;;;4.90;2.30;;;7.70;99.90;;;;;;6133097;23;20212;-74
2021/05/05 04:46:41;;;;;;;4.10;2.00;;;7.80;99.90;;;;;;6123526;23;20255;-74
2021/05/05 04:49:09;;;;;;;3.05;1.80;;;7.70;99.90;;;;;;6123461;23;20543;-74
2021/05/05 04:51:37;;;;;;;2.65;1.63;;;7.70;99.90;;;;;;6124099;23;20276;-74
2021/05/05 04:54:05;;;;;;;4.68;1.75;;;7.80;99.90;;;;;;6123526;23;20651;-75
2021/05/05 04:56:31;;;;;;;2.50;1.92;;;7.80;99.90;;;;;;6122669;23;20666;-75
2021/05/05 04:58:57;;;;;;;2.38;1.90;;;7.80;99.90;;;;;;6123692;23;20266;-75
2021/05/05 05:01:24;;;;;;;4.65;2.17;;;7.80;99.90;;;;;;6123705;23;20212;-75
2021/05/05 05:03:50;;;;;;;2.90;2.05;;;7.90;99.90;;;;;;6121306;23;20693;-75
2021/05/05 05:06:18;;;;;;;2.75;1.52;;;7.90;99.80;;;;;;6122826;23;20264;-74
2021/05/05 05:08:44;;;;;;;2.75;1.75;;;7.90;99.50;;;;;;6124131;23;20212;-75
2021/05/05 05:11:10;;;;;;;3.58;1.77;;;8.00;99.20;;;;;;6123339;23;20721;-74
2021/05/05 05:13:37;;;;;;;1.95;1.70;;;8.00;98.50;;;;;;6126004;23;20235;-74
2021/05/05 05:16:04;;;;;;;2.55;2.20;;;8.00;97.40;;;;;;6129620;23;20622;-75
2021/05/05 05:18:31;;;;;;;4.72;1.75;;;8.00;96.50;;;;;;6125261;23;20184;-74
2021/05/05 05:20:57;;;;;;;3.67;1.88;;;8.00;96.20;;;;;;6126331;23;20256;-73
2021/05/05 05:23:25;;;;;;;3.38;1.92;;;8.20;95.70;;;;;;6126962;23;20268;-74
2021/05/05 05:25:51;;;;;;;5.13;2.08;;;8.50;94.40;;;;;;6131880;23;20635;-74
2021/05/05 05:28:18;;;;;;;2.25;1.60;;;8.80;92.50;;;;;;6134094;23;20181;-75
2021/05/05 05:30:44;;;;;;;3.60;1.60;;;8.80;90.80;;;;;;6103654;23;689350;-74
2021/05/05 05:33:10;;;;;;;4.70;2.10;;;8.80;89.60;;;;;;6134648;23;20184;-74
2021/05/05 05:35:37;;;;;;;1.52;1.30;;;8.90;89.70;;;;;;6135757;23;20193;-73
2021/05/05 05:38:03;;;;;;;6.00;1.60;;;8.90;88.00;;;;;;6133990;23;20223;-75
2021/05/05 05:40:30;;;;;;;2.88;1.45;;;8.90;87.00;;;;;;6137682;23;20260;-75
2021/05/05 05:42:57;;;;;;;5.38;2.20;;;8.80;86.20;;;;;;6135929;23;20191;-74
2021/05/05 05:45:23;;;;;;;5.75;2.20;;;8.80;87.90;;;;;;6136989;23;20215;-75
2021/05/05 05:47:50;;;;;;;3.70;1.90;;;9.00;86.50;;;;;;6135731;23;20220;-75
2021/05/05 05:50:17;;;;;;;5.03;2.00;;;9.70;83.50;;;;;;6130440;23;20183;-75
2021/05/05 05:52:43;;;;;;;2.85;1.65;;;10.50;72.00;;;;;;6135668;23;20189;-75
2021/05/05 05:55:14;;;;;;;3.03;1.38;;;10.90;64.50;;;;;;6144907;23;20196;-76
2021/05/05 05:57:42;;;;;;;3.70;2.35;;;11.40;61.50;;;;;;6141206;23;20179;-75
2021/05/05 06:00:12;;;;;;;3.90;1.55;;;11.70;58.50;;;;;;6138958;23;20522;-76
2021/05/05 06:02:38;;;;;;;5.38;1.70;;;11.40;54.80;;;;;;6143064;23;20200;-77
2021/05/05 06:05:06;;;;;;;4.60;2.00;;;11.50;54.60;;;;;;6141447;23;20252;-76
2021/05/05 06:07:32;;;;;;;3.33;1.90;;;11.50;50.60;;;;;;6136551;23;20723;-76
2021/05/05 06:09:58;;;;;;;5.18;1.95;;;11.50;50.60;;;;;;6132846;23;20179;-75
2021/05/05 06:12:25;;;;;;;4.10;1.70;;;11.50;50.50;;;;;;6138947;23;20291;-75
2021/05/05 06:14:54;;;;;;;5.57;2.03;;;11.50;49.60;;;;;;6134140;23;20185;-76
2021/05/05 06:17:21;;;;;;;5.60;1.60;;;11.20;48.00;;;;;;6133230;23;20181;-76
2021/05/05 06:19:47;;;;;;;3.83;1.85;;;11.10;48.70;;;;;;6126898;23;20890;-76
2021/05/05 06:22:14;;;;;;;4.63;1.70;;;11.20;46.20;;;;;;6127687;23;20714;-75
2021/05/05 06:24:40;;;;;;;2.00;1.52;;;11.20;47.20;;;;;;6127614;23;20273;-77
2021/05/05 06:27:07;;;;;;;3.60;1.70;;;11.50;46.70;;;;;;6126588;23;20248;-77
2021/05/05 06:29:33;;;;;;;3.25;1.60;;;11.50;46.30;;;;;;6126631;23;20185;-76
2021/05/05 06:32:00;;;;;;;4.85;1.73;;;11.10;48.10;;;;;;6126544;23;20236;-75
2021/05/05 06:34:27;;;;;;;3.85;1.45;;;10.90;50.10;;;;;;6127276;23;20191;-75
2021/05/05 06:36:53;;;;;;;5.25;1.70;;;10.90;51.80;;;;;;6126704;23;20220;-77
2021/05/05 06:39:20;;;;;;;1.95;1.38;;;10.90;51.60;;;;;;6127068;23;20260;-76
2021/05/05 06:41:46;;;;;;;4.30;1.90;;;10.70;50.30;;;;;;6126670;23;20227;-75
2021/05/05 06:44:13;;;;;;;4.88;1.98;;;10.40;52.70;;;;;;6127367;23;20722;-76
2021/05/05 06:46:42;;;;;;;4.68;2.03;;;10.30;53.40;;;;;;6126836;23;20184;-76
2021/05/05 06:49:10;;;;;;;9.57;2.00;;;10.10;52.70;;;;;;6126831;23;20488;-76
2021/05/05 06:51:37;;;;;;;3.63;1.75;;;10.00;54.50;;;;;;6126202;23;20219;-76
2021/05/05 06:54:05;;;;;;;14.43;2.13;;;10.00;52.90;;;;;;6127066;23;20254;-77
2021/05/05 06:56:31;;;;;;;6.78;2.70;;;9.90;52.10;;;;;;6126448;23;20188;-76
2021/05/05 06:58:57;;;;;;;3.90;1.90;;;9.70;50.00;;;;;;6126802;23;20184;-77
2021/05/05 07:01:24;;;;;;;9.70;2.05;;;9.70;51.90;;;;;;6124399;23;20383;-76
2021/05/05 07:03:50;;;;;;;5.20;2.10;;;9.90;51.50;;;;;;6125694;23;20181;-76
2021/05/05 07:06:17;;;;;;;5.78;2.17;;;10.00;49.20;;;;;;6124881;23;20669;-75
2021/05/05 07:08:44;;;;;;;7.68;3.15;;;10.20;49.40;;;;;;6126038;23;20180;-75
2021/05/05 07:11:10;;;;;;;6.30;2.15;;;10.20;49.40;;;;;;6126371;23;20200;-76
2021/05/05 07:13:37;;;;;;;3.88;1.88;;;10.10;49.30;;;;;;6125711;23;20289;-75
2021/05/05 07:16:03;;;;;;;8.23;3.00;;;10.20;48.60;;;;;;6126297;23;20235;-76
2021/05/05 07:18:29;;;;;;;5.47;2.20;;;10.20;47.30;;;;;;6125994;23;20255;-75
2021/05/05 07:20:58;;;;;;;9.10;2.15;;;10.10;48.10;;;;;;6125413;23;20243;-75
2021/05/05 07:23:25;;;;;;;6.30;2.40;;;9.90;49.30;;;;;;6125591;23;20203;-75
2021/05/05 07:25:51;;;;;;;3.53;1.90;;;9.90;49.20;;;;;;6126345;23;20235;-75
2021/05/05 07:28:18;;;;;;;4.22;2.30;;;9.80;47.60;;;;;;6127003;23;20222;-76
2021/05/05 07:30:45;;;;;;;9.65;2.55;;;9.80;48.10;;;;;;6125691;23;20307;-75
2021/05/05 07:33:13;;;;;;;5.72;2.20;;;9.90;48.70;;;;;;6127366;23;20258;-75
2021/05/05 07:35:41;;;;;;;9.32;1.90;;;10.00;46.30;;;;;;6127020;23;20181;-75
2021/05/05 07:46:33;;;;;;;4.10;1.92;;;9.90;41.00;;;;;;6126309;23;20168;-75
2021/05/05 07:49:02;;;;;;;4.93;1.77;;;10.00;41.60;;;;;;6125976;23;20232;-76
2021/05/05 07:51:28;;;;;;;5.85;1.50;;;10.10;42.00;;;;;;6125304;23;20721;-74
2021/05/05 07:53:55;;;;;;;8.10;2.55;;;10.20;40.90;;;;;;6126772;23;20185;-75
2021/05/05 07:56:22;;;;;;;3.58;1.85;;;10.30;40.60;;;;;;6126270;23;20185;-77
2021/05/05 07:58:49;;;;;;;3.55;1.75;;;10.50;41.00;;;;;;6126509;23;20199;-76
2021/05/05 08:01:17;;;;;;;5.40;1.65;;;10.50;40.00;;;;;;6127321;23;20543;-76
2021/05/05 08:03:43;;;;;;;4.30;1.85;;;10.50;40.00;;;;;;6127654;23;20271;-75
2021/05/05 08:06:10;;;;;;;5.55;2.53;;;10.80;40.20;;;;;;6130118;23;20259;-75
2021/05/05 08:08:37;;;;;;;4.50;1.65;;;11.10;37.80;;;;;;6129942;23;20185;-75
2021/05/05 08:11:04;;;;;;;6.07;2.10;;;11.50;38.10;;;;;;6129505;23;20575;-75
2021/05/05 08:13:31;;;;;;;10.07;2.63;;;11.70;36.10;;;;;;6129353;23;20212;-76
2021/05/05 08:15:57;;;;;;;9.18;2.65;;;11.50;35.90;;;;;;6129959;23;20185;-75
2021/05/05 08:18:24;;;;;;;10.75;1.98;;;11.40;35.80;;;;;;6128260;23;20260;-75
2021/05/05 08:20:51;;;;;;;2.58;1.90;;;11.70;35.40;;;;;;6128398;23;20204;-75
2021/05/05 08:23:19;;;;;;;3.60;1.80;;;12.00;34.70;;;;;;6127919;23;20223;-75
2021/05/05 08:25:47;;;;;;;7.07;2.13;;;11.70;34.30;;;;;;6129304;23;20214;-74
2021/05/05 08:28:16;;;;;;;5.00;1.70;;;11.40;35.20;;;;;;6127218;23;20460;-75
2021/05/05 08:30:43;;;;;;;5.30;1.90;;;11.20;35.70;;;;;;6127369;23;20240;-75
2021/05/05 08:33:10;;;;;;;5.50;1.80;;;11.30;35.20;;;;;;6127917;23;20170;-74
2021/05/05 08:35:37;;;;;;;4.63;1.35;;;11.50;34.20;;;;;;6133397;23;20247;-76
2021/05/05 08:38:04;;;;;;;3.53;1.52;;;11.70;33.90;;;;;;6136602;23;20593;-75
2021/05/05 08:40:32;;;;;;;5.05;1.70;;;11.90;33.50;;;;;;6138764;23;20201;-75
2021/05/05 08:42:58;;;;;;;3.67;2.00;;;11.90;32.50;;;;;;6140482;23;20195;-75
2021/05/05 08:45:26;;;;;;;5.25;2.15;;;12.00;31.30;;;;;;6145621;23;20183;-75
2021/05/05 08:47:56;;;;;;;5.50;2.00;;;11.80;31.40;;;;;;6143772;23;20191;-75
2021/05/05 08:50:24;;;;;;;5.55;1.88;;;11.90;32.30;;;;;;6140364;23;20192;-74
2021/05/05 08:52:50;;;;;;;5.43;1.80;;;11.80;32.30;;;;;;6130749;23;20212;-75
2021/05/05 08:55:19;;;;;;;5.18;2.00;;;11.60;34.90;;;;;;6129136;23;20212;-75
2021/05/05 08:57:47;;;;;;;7.68;1.88;;;11.60;32.10;;;;;;6143821;23;20200;-73
2021/05/05 09:00:16;;;;;;;6.25;2.00;;;11.60;30.90;;;;;;6151168;23;20200;-74
2021/05/05 09:02:43;;;;;;;5.88;2.05;;;11.90;31.90;;;;;;6150490;23;20181;-74
2021/05/05 09:05:13;;;;;;;4.63;1.77;;;12.30;30.70;;;;;;6150787;23;20180;-74
2021/05/05 09:07:40;;;;;;;5.55;1.83;;;12.40;29.50;;;;;;6150962;23;20169;-72
2021/05/05 09:10:09;;;;;;;3.80;1.73;;;12.40;29.40;;;;;;6150052;23;20216;-75
2021/05/05 09:12:37;;;;;;;5.88;2.38;;;12.60;29.60;;;;;;6141761;23;20200;-76
2021/05/05 09:15:06;;;;;;;4.72;1.85;;;12.70;29.60;;;;;;6127948;23;20655;-76
2021/05/05 09:17:33;;;;;;;4.70;1.70;;;12.80;29.40;;;;;;6125714;23;20209;-77
2021/05/05 09:20:32;;;;;;;3.20;1.70;;;12.60;29.70;;;;;;6125691;23;20259;-75
2021/05/05 09:22:59;;;;;;;1.80;1.50;;;12.90;30.10;;;;;;6065063;23;20218;-75
2021/05/05 09:25:41;;;;;;;4.50;1.92;;;13.10;28.10;;;;;;6112562;23;20187;-77
2021/05/05 09:28:10;;;;;;;3.17;1.73;;;13.30;28.80;;;;;;6125163;23;20232;-75
2021/05/05 09:33:06;;;;;;;2.70;1.30;;;12.80;28.70;;;;;;6099710;23;20213;-80
2021/05/05 09:35:35;;;;;;;6.50;2.03;;;12.60;27.40;;;;;;6117103;23;20241;-84
2021/05/05 09:38:03;;;;;;;3.55;1.85;;;12.90;28.00;;;;;;6120653;23;20181;-81
2021/05/05 09:40:30;;;;;;;5.75;2.17;;;13.40;27.80;;;;;;6116693;23;20197;-82
2021/05/05 09:42:57;;;;;;;5.50;1.85;;;13.30;27.70;;;;;;6144181;23;20207;-81
2021/05/05 09:45:32;;;;;;;2.47;1.50;;;12.80;28.10;;;;;;6143100;23;20224;-82
2021/05/05 09:48:00;;;;;;;7.15;2.80;;;12.00;28.60;;;;;;6140200;23;20176;-82
2021/05/05 09:50:29;;;;;;;2.60;1.65;;;11.50;29.20;;;;;;6139536;23;20176;-82
2021/05/05 09:53:16;;;;;;;3.20;1.17;;;11.20;32.20;;;;;;6141864;23;20204;-79
2021/05/05 09:55:44;;;;;;;2.90;1.00;;;9.60;43.10;;;;;;6148299;23;20191;-81
2021/05/05 09:58:28;;;;;;;3.25;1.48;;;6.80;58.30;;;;;;6148937;23;20172;-80
2021/05/05 10:01:12;;;;;;;1.45;1.02;;;5.70;75.20;;;;;;6149962;23;20211;-80
2021/05/05 10:03:40;;;;;;;2.50;2.10;;;5.60;85.00;;;;;;6145825;23;20650;-81
2021/05/05 10:06:27;;;;;;;4.00;1.52;;;5.60;88.70;;;;;;6147791;23;20187;-80
2021/05/05 10:08:56;;;;;;;3.35;1.58;;;5.70;90.10;;;;;;6151130;23;20153;-80
2021/05/05 10:11:25;;;;;;;1.60;1.50;;;5.80;90.20;;;;;;6152586;23;20228;-81
2021/05/05 10:13:57;;;;;;;6.68;2.15;;;5.90;90.10;;;;;;6153924;23;20164;-79
2021/05/05 10:16:26;;;;;;;2.25;1.70;;;6.30;91.20;;;;;;6153896;23;20169;-82
2021/05/05 10:18:55;;;;;;;1.70;1.23;;;6.50;89.60;;;;;;6152738;23;20160;-81
2021/05/05 10:21:28;;;;;;;2.58;1.42;;;6.80;87.60;;;;;;6153394;23;20205;-82
2021/05/05 10:31:22;;;;;;;1.88;1.17;;;8.30;72.30;;;;;;6091615;23;20162;-81
2021/05/05 10:36:47;;;;;;;3.45;1.83;;;9.30;61.30;;;;;;6038511;23;20234;-81
2021/05/05 10:39:39;;;;;;;2.92;1.70;;;9.40;61.30;;;;;;6119342;23;20225;-82
2021/05/05 10:42:18;;;;;;;2.60;1.35;;;9.60;60.00;;;;;;6138565;23;20200;-81
2021/05/05 10:44:48;;;;;;;1.45;1.20;;;9.80;61.00;;;;;;6152441;23;20212;-80
2021/05/05 10:47:24;;;;;;;1.67;1.50;;;9.70;54.70;;;;;;6151998;23;20184;-78
2021/05/05 10:50:16;;;;;;;2.20;1.50;;;9.50;59.20;;;;;;6121259;23;20208;-78
2021/05/05 10:53:07;;;;;;;2.75;1.40;;;9.70;57.60;;;;;;6098718;23;20245;-80
2021/05/05 10:55:37;;;;;;;3.35;1.50;;;9.80;59.50;;;;;;6096285;23;20276;-78
2021/05/05 10:58:05;;;;;;;3.53;1.42;;;10.00;58.20;;;;;;6099455;23;20209;-77
2021/05/05 11:00:50;;;;;;;2.08;1.45;;;10.20;54.80;;;;;;6129122;23;20205;-78
2021/05/05 11:03:18;;;;;;;3.85;2.13;;;10.40;54.40;;;;;;6145381;23;20169;-78
2021/05/05 11:05:48;;;;;;;3.85;1.92;;;10.60;53.70;;;;;;6150114;23;20181;-78
2021/05/05 11:08:27;;;;;;;6.15;2.45;;;10.90;53.10;;;;;;6150454;23;20169;-77
2021/05/05 11:10:56;;;;;;;3.00;1.70;;;11.20;53.60;;;;;;6151244;23;20211;-77
2021/05/05 11:13:42;;;;;;;2.25;1.60;;;11.70;50.80;;;;;;6150336;23;20627;-79
2021/05/05 11:16:09;;;;;;;2.05;1.80;;;11.90;48.80;;;;;;6149092;23;20211;-78
2021/05/05 11:18:46;;;;;;;2.50;1.60;;;12.10;47.20;;;;;;6139424;23;20184;-77
2021/05/05 11:21:44;;;;;;;3.80;1.65;;;12.00;46.50;;;;;;6128370;23;20212;-78
2021/05/05 11:24:31;;;;;;;2.58;1.48;;;12.20;46.20;;;;;;6120649;23;20212;-77
2021/05/05 11:27:14;;;;;;;2.58;1.55;;;12.30;44.80;;;;;;6131521;23;20196;-78
2021/05/05 11:29:42;;;;;;;3.75;1.67;;;12.60;43.60;;;;;;6131060;23;20197;-77
2021/05/05 11:32:16;;;;;;;4.47;1.75;;;12.70;44.30;;;;;;6131080;23;20188;-78
2021/05/05 11:34:49;;;;;;;3.70;1.80;;;12.60;41.90;;;;;;6131638;23;20604;-77
2021/05/05 11:37:20;;;;;;;5.70;1.60;;;12.70;42.00;;;;;;6128734;23;20157;-78
2021/05/05 11:39:49;;;;;;;1.52;1.23;;;12.60;41.90;;;;;;6130117;23;20647;-78
2021/05/05 11:42:16;;;;;;;3.22;1.63;;;12.60;41.90;;;;;;6128540;23;20204;-78
2021/05/05 11:44:44;;;;;;;2.78;2.38;;;12.70;40.10;;;;;;6130581;23;20239;-77
2021/05/05 11:47:13;;;;;;;3.75;1.70;;;12.50;41.80;;;;;;6127737;23;20180;-78
2021/05/05 11:49:41;;;;;;;2.20;1.80;;;12.60;41.90;;;;;;6129243;23;20291;-77
2021/05/05 11:52:23;;;;;;;2.15;1.45;;;12.80;40.70;;;;;;6129766;23;20180;-77
2021/05/05 11:54:53;;;;;;;2.47;1.70;;;12.60;41.90;;;;;;6126570;23;20539;-76
2021/05/05 11:57:20;;;;;;;4.43;1.90;;;12.30;41.60;;;;;;6125777;23;20497;-75
2021/05/05 11:59:46;;;;;;;1.48;0.98;;;12.00;41.40;;;;;;6125643;23;20204;-75
2021/05/05 12:02:13;;;;;;;3.13;1.60;;;11.40;35.20;;;;;;6127145;23;20200;-75
2021/05/05 12:04:41;;;;;;;2.15;1.27;;;11.20;38.00;;;;;;6127421;23;20212;-75
2021/05/05 12:07:10;;;;;;;0.80;0.70;;;11.40;34.30;;;;;;6127317;23;20263;-77
2021/05/05 12:09:40;;;;;;;2.15;1.10;;;11.40;30.70;;;;;;6126517;23;20546;-76
2021/05/05 12:12:12;;;;;;;1.00;0.85;;;11.20;29.60;;;;;;6127172;23;20239;-75
2021/05/05 12:14:39;;;;;;;1.08;0.98;;;10.80;30.20;;;;;;6131666;23;20196;-74
2021/05/05 12:17:18;;;;;;;1.10;0.80;;;10.30;32.40;;;;;;6139664;23;20322;-76
2021/05/05 12:20:17;;;;;;;2.97;1.05;;;10.10;33.80;;;;;;6130834;23;20679;-75
2021/05/05 12:22:52;;;;;;;1.67;1.10;;;10.40;35.20;;;;;;6126977;23;20579;-75
2021/05/05 12:25:22;;;;;;;2.65;1.10;;;10.70;34.50;;;;;;6143708;23;20169;-76
2021/05/05 12:28:07;;;;;;;2.95;1.00;;;10.40;35.40;;;;;;6144740;23;20199;-74
2021/05/05 12:30:47;;;;;;;1.33;1.00;;;10.40;36.50;;;;;;6142734;23;20608;-76
2021/05/05 12:33:16;;;;;;;2.10;0.90;;;10.60;36.50;;;;;;6135075;23;20220;-76
2021/05/05 12:35:43;;;;;;;0.70;0.70;;;11.00;35.40;;;;;;6146287;23;20192;-78
2021/05/05 12:38:13;;;;;;;1.35;0.80;;;11.70;34.70;;;;;;6139361;23;20191;-74
2021/05/05 12:40:41;;;;;;;2.53;1.25;;;11.90;32.60;;;;;;6125548;23;20273;-77
2021/05/05 12:43:26;;;;;;;1.67;0.80;;;11.60;33.20;;;;;;6125420;23;20184;-76
2021/05/05 12:45:55;;;;;;;3.60;1.05;;;11.50;34.30;;;;;;6125550;23;20196;-76
2021/05/05 12:48:25;;;;;;;4.28;1.50;;;11.20;34.60;;;;;;6126516;23;20211;-76
2021/05/05 12:50:51;;;;;;;3.13;1.58;;;10.90;35.30;;;;;;6126975;23;20212;-76
2021/05/05 12:53:18;;;;;;;3.10;1.30;;;10.90;37.40;;;;;;6127859;23;20185;-73
2021/05/05 12:55:57;;;;;;;1.70;1.25;;;10.80;40.20;;;;;;6128821;23;20551;-76
2021/05/05 12:58:25;;;;;;;3.53;1.15;;;10.60;43.80;;;;;;6129555;23;20228;-77
2021/05/05 13:00:52;;;;;;;2.55;1.13;;;10.30;45.40;;;;;;6127881;23;20673;-76
2021/05/05 13:03:20;;;;;;;3.05;1.23;;;10.20;46.00;;;;;;6126646;23;20192;-77
2021/05/05 13:06:02;;;;;;;1.25;1.10;;;10.40;44.60;;;;;;6126121;23;20192;-75
2021/05/05 13:08:35;;;;;;;0.90;0.90;;;10.70;41.20;;;;;;6125924;23;20243;-76
2021/05/05 13:11:07;;;;;;;1.02;0.98;;;10.80;40.20;;;;;;6125737;23;20534;-76
2021/05/05 13:14:00;;;;;;;2.40;1.05;;;10.60;40.10;;;;;;6126475;23;20180;-77
2021/05/05 13:16:57;;;;;;;1.15;1.05;;;10.50;40.00;;;;;;6112673;23;20185;-75
2021/05/05 13:31:19;;;;;;;6.85;1.75;;;13.40;32.60;;;;;;6126744;23;20247;-77
2021/05/05 13:34:08;;;;;;;2.67;1.40;;;13.40;32.50;;;;;;6125284;23;20203;-76